﻿<?xml version="1.0" encoding="UTF-8" standalone="no"?>
<gpx xmlns="http://www.topografix.com/GPX/1/1" xmlns:gpxtpx="http://www.garmin.com/xmlschemas/TrackPointExtension/v1" xmlns:xsi="http://www.w3.org/2001/XMLSchema-instance" creator="Hribi.net" version="1.1" xsi:schemaLocation="http://www.topografix.com/GPX/1/1 http://www.topografix.com/GPX/1/1/gpx.xsd http://www.garmin.com/xmlschemas/TrackPointExtension/v1 http://www.garmin.com/xmlschemas/TrackPointExtensionv1.xsd">
  <metadata>
    <name>GPS sled</name>
    <desc>www.hribi.net</desc>
    <author>
      <name>hribi.net</name>
    </author>
    <link href="http://www.hribi.net">
      <text>Hribi.net</text>
    </link>
  </metadata>
  <trk>
    <trkseg>
      <trkpt lat="46.384226" lon="15.188295">
        <ele>1000.00</ele>
        <time>2018-01-25T13:05:19Z</time>
      </trkpt>
      <trkpt lat="46.384222" lon="15.188318">
        <ele>1000.00</ele>
        <time>2018-01-25T13:05:21Z</time>
      </trkpt>
      <trkpt lat="46.384195" lon="15.188348">
        <ele>1001.00</ele>
        <time>2018-01-25T13:05:23Z</time>
      </trkpt>
      <trkpt lat="46.384147" lon="15.188359">
        <ele>1001.00</ele>
        <time>2018-01-25T13:05:25Z</time>
      </trkpt>
      <trkpt lat="46.384112" lon="15.188368">
        <ele>1001.00</ele>
        <time>2018-01-25T13:05:27Z</time>
      </trkpt>
      <trkpt lat="46.384099" lon="15.188369">
        <ele>1001.00</ele>
        <time>2018-01-25T13:05:28Z</time>
      </trkpt>
      <trkpt lat="46.384080" lon="15.188380">
        <ele>1001.00</ele>
        <time>2018-01-25T13:05:30Z</time>
      </trkpt>
      <trkpt lat="46.384063" lon="15.188404">
        <ele>1001.00</ele>
        <time>2018-01-25T13:05:32Z</time>
      </trkpt>
      <trkpt lat="46.384054" lon="15.188410">
        <ele>1001.00</ele>
        <time>2018-01-25T13:05:35Z</time>
      </trkpt>
      <trkpt lat="46.384036" lon="15.188416">
        <ele>1001.00</ele>
        <time>2018-01-25T13:05:37Z</time>
      </trkpt>
      <trkpt lat="46.384008" lon="15.188411">
        <ele>1001.00</ele>
        <time>2018-01-25T13:05:39Z</time>
      </trkpt>
      <trkpt lat="46.383983" lon="15.188424">
        <ele>1001.00</ele>
        <time>2018-01-25T13:05:41Z</time>
      </trkpt>
      <trkpt lat="46.383975" lon="15.188429">
        <ele>1000.75</ele>
        <time>2018-01-25T13:05:42Z</time>
      </trkpt>
      <trkpt lat="46.383952" lon="15.188445">
        <ele>1000.00</ele>
        <time>2018-01-25T13:05:44Z</time>
      </trkpt>
      <trkpt lat="46.383938" lon="15.188457">
        <ele>1000.00</ele>
        <time>2018-01-25T13:05:46Z</time>
      </trkpt>
      <trkpt lat="46.383931" lon="15.188468">
        <ele>1000.00</ele>
        <time>2018-01-25T13:05:48Z</time>
      </trkpt>
      <trkpt lat="46.383919" lon="15.188477">
        <ele>1000.00</ele>
        <time>2018-01-25T13:05:50Z</time>
      </trkpt>
      <trkpt lat="46.383890" lon="15.188494">
        <ele>999.75</ele>
        <time>2018-01-25T13:05:52Z</time>
      </trkpt>
      <trkpt lat="46.383850" lon="15.188518">
        <ele>999.00</ele>
        <time>2018-01-25T13:05:54Z</time>
      </trkpt>
      <trkpt lat="46.383836" lon="15.188529">
        <ele>999.00</ele>
        <time>2018-01-25T13:05:55Z</time>
      </trkpt>
      <trkpt lat="46.383805" lon="15.188552">
        <ele>999.00</ele>
        <time>2018-01-25T13:05:57Z</time>
      </trkpt>
      <trkpt lat="46.383782" lon="15.188584">
        <ele>999.00</ele>
        <time>2018-01-25T13:05:59Z</time>
      </trkpt>
      <trkpt lat="46.383771" lon="15.188596">
        <ele>999.00</ele>
        <time>2018-01-25T13:06:01Z</time>
      </trkpt>
      <trkpt lat="46.383768" lon="15.188598">
        <ele>999.25</ele>
        <time>2018-01-25T13:06:02Z</time>
      </trkpt>
      <trkpt lat="46.383753" lon="15.188613">
        <ele>1000.00</ele>
        <time>2018-01-25T13:06:04Z</time>
      </trkpt>
      <trkpt lat="46.383725" lon="15.188620">
        <ele>1000.00</ele>
        <time>2018-01-25T13:06:06Z</time>
      </trkpt>
      <trkpt lat="46.383699" lon="15.188640">
        <ele>1000.00</ele>
        <time>2018-01-25T13:06:08Z</time>
      </trkpt>
      <trkpt lat="46.383686" lon="15.188665">
        <ele>1000.00</ele>
        <time>2018-01-25T13:06:10Z</time>
      </trkpt>
      <trkpt lat="46.383661" lon="15.188696">
        <ele>1000.00</ele>
        <time>2018-01-25T13:06:12Z</time>
      </trkpt>
      <trkpt lat="46.383651" lon="15.188713">
        <ele>1000.00</ele>
        <time>2018-01-25T13:06:14Z</time>
      </trkpt>
      <trkpt lat="46.383636" lon="15.188731">
        <ele>1000.00</ele>
        <time>2018-01-25T13:06:16Z</time>
      </trkpt>
      <trkpt lat="46.383622" lon="15.188741">
        <ele>1000.00</ele>
        <time>2018-01-25T13:06:17Z</time>
      </trkpt>
      <trkpt lat="46.383591" lon="15.188757">
        <ele>1000.00</ele>
        <time>2018-01-25T13:06:19Z</time>
      </trkpt>
      <trkpt lat="46.383568" lon="15.188771">
        <ele>1000.00</ele>
        <time>2018-01-25T13:06:21Z</time>
      </trkpt>
      <trkpt lat="46.383544" lon="15.188785">
        <ele>999.00</ele>
        <time>2018-01-25T13:06:23Z</time>
      </trkpt>
      <trkpt lat="46.383508" lon="15.188811">
        <ele>999.00</ele>
        <time>2018-01-25T13:06:25Z</time>
      </trkpt>
      <trkpt lat="46.383493" lon="15.188820">
        <ele>999.00</ele>
        <time>2018-01-25T13:06:26Z</time>
      </trkpt>
      <trkpt lat="46.383464" lon="15.188843">
        <ele>999.00</ele>
        <time>2018-01-25T13:06:28Z</time>
      </trkpt>
      <trkpt lat="46.383446" lon="15.188860">
        <ele>999.00</ele>
        <time>2018-01-25T13:06:29Z</time>
      </trkpt>
      <trkpt lat="46.383417" lon="15.188895">
        <ele>999.00</ele>
        <time>2018-01-25T13:06:31Z</time>
      </trkpt>
      <trkpt lat="46.383391" lon="15.188925">
        <ele>997.00</ele>
        <time>2018-01-25T13:06:33Z</time>
      </trkpt>
      <trkpt lat="46.383359" lon="15.188947">
        <ele>997.00</ele>
        <time>2018-01-25T13:06:35Z</time>
      </trkpt>
      <trkpt lat="46.383330" lon="15.188972">
        <ele>997.00</ele>
        <time>2018-01-25T13:06:37Z</time>
      </trkpt>
      <trkpt lat="46.383299" lon="15.188997">
        <ele>997.00</ele>
        <time>2018-01-25T13:06:39Z</time>
      </trkpt>
      <trkpt lat="46.383276" lon="15.189015">
        <ele>997.00</ele>
        <time>2018-01-25T13:06:41Z</time>
      </trkpt>
      <trkpt lat="46.383246" lon="15.189042">
        <ele>995.00</ele>
        <time>2018-01-25T13:06:43Z</time>
      </trkpt>
      <trkpt lat="46.383223" lon="15.189070">
        <ele>995.00</ele>
        <time>2018-01-25T13:06:45Z</time>
      </trkpt>
      <trkpt lat="46.383200" lon="15.189092">
        <ele>995.00</ele>
        <time>2018-01-25T13:06:47Z</time>
      </trkpt>
      <trkpt lat="46.383180" lon="15.189106">
        <ele>995.00</ele>
        <time>2018-01-25T13:06:49Z</time>
      </trkpt>
      <trkpt lat="46.383139" lon="15.189112">
        <ele>995.00</ele>
        <time>2018-01-25T13:06:51Z</time>
      </trkpt>
      <trkpt lat="46.383101" lon="15.189113">
        <ele>991.00</ele>
        <time>2018-01-25T13:06:53Z</time>
      </trkpt>
      <trkpt lat="46.383057" lon="15.189093">
        <ele>991.00</ele>
        <time>2018-01-25T13:06:55Z</time>
      </trkpt>
      <trkpt lat="46.383028" lon="15.189064">
        <ele>990.75</ele>
        <time>2018-01-25T13:06:57Z</time>
      </trkpt>
      <trkpt lat="46.382992" lon="15.189017">
        <ele>990.00</ele>
        <time>2018-01-25T13:06:59Z</time>
      </trkpt>
      <trkpt lat="46.382965" lon="15.188980">
        <ele>990.00</ele>
        <time>2018-01-25T13:07:01Z</time>
      </trkpt>
      <trkpt lat="46.382953" lon="15.188961">
        <ele>989.75</ele>
        <time>2018-01-25T13:07:02Z</time>
      </trkpt>
      <trkpt lat="46.382934" lon="15.188923">
        <ele>989.00</ele>
        <time>2018-01-25T13:07:04Z</time>
      </trkpt>
      <trkpt lat="46.382907" lon="15.188879">
        <ele>989.00</ele>
        <time>2018-01-25T13:07:06Z</time>
      </trkpt>
      <trkpt lat="46.382887" lon="15.188832">
        <ele>989.00</ele>
        <time>2018-01-25T13:07:08Z</time>
      </trkpt>
      <trkpt lat="46.382860" lon="15.188789">
        <ele>989.00</ele>
        <time>2018-01-25T13:07:10Z</time>
      </trkpt>
      <trkpt lat="46.382835" lon="15.188746">
        <ele>988.49</ele>
        <time>2018-01-25T13:07:12Z</time>
      </trkpt>
      <trkpt lat="46.382797" lon="15.188705">
        <ele>987.00</ele>
        <time>2018-01-25T13:07:14Z</time>
      </trkpt>
      <trkpt lat="46.382769" lon="15.188676">
        <ele>987.00</ele>
        <time>2018-01-25T13:07:16Z</time>
      </trkpt>
      <trkpt lat="46.382744" lon="15.188647">
        <ele>987.00</ele>
        <time>2018-01-25T13:07:18Z</time>
      </trkpt>
      <trkpt lat="46.382735" lon="15.188622">
        <ele>987.00</ele>
        <time>2018-01-25T13:07:19Z</time>
      </trkpt>
      <trkpt lat="46.382697" lon="15.188570">
        <ele>987.00</ele>
        <time>2018-01-25T13:07:21Z</time>
      </trkpt>
      <trkpt lat="46.382683" lon="15.188530">
        <ele>984.00</ele>
        <time>2018-01-25T13:07:23Z</time>
      </trkpt>
      <trkpt lat="46.382665" lon="15.188468">
        <ele>984.00</ele>
        <time>2018-01-25T13:07:25Z</time>
      </trkpt>
      <trkpt lat="46.382651" lon="15.188419">
        <ele>983.75</ele>
        <time>2018-01-25T13:07:27Z</time>
      </trkpt>
      <trkpt lat="46.382641" lon="15.188391">
        <ele>983.00</ele>
        <time>2018-01-25T13:07:28Z</time>
      </trkpt>
      <trkpt lat="46.382624" lon="15.188351">
        <ele>983.00</ele>
        <time>2018-01-25T13:07:30Z</time>
      </trkpt>
      <trkpt lat="46.382598" lon="15.188318">
        <ele>982.75</ele>
        <time>2018-01-25T13:07:32Z</time>
      </trkpt>
      <trkpt lat="46.382572" lon="15.188291">
        <ele>982.00</ele>
        <time>2018-01-25T13:07:34Z</time>
      </trkpt>
      <trkpt lat="46.382540" lon="15.188244">
        <ele>982.00</ele>
        <time>2018-01-25T13:07:36Z</time>
      </trkpt>
      <trkpt lat="46.382509" lon="15.188206">
        <ele>982.00</ele>
        <time>2018-01-25T13:07:38Z</time>
      </trkpt>
      <trkpt lat="46.382467" lon="15.188165">
        <ele>982.00</ele>
        <time>2018-01-25T13:07:40Z</time>
      </trkpt>
      <trkpt lat="46.382450" lon="15.188139">
        <ele>982.00</ele>
        <time>2018-01-25T13:07:41Z</time>
      </trkpt>
      <trkpt lat="46.382416" lon="15.188099">
        <ele>979.00</ele>
        <time>2018-01-25T13:07:43Z</time>
      </trkpt>
      <trkpt lat="46.382386" lon="15.188061">
        <ele>979.00</ele>
        <time>2018-01-25T13:07:45Z</time>
      </trkpt>
      <trkpt lat="46.382366" lon="15.188022">
        <ele>977.99</ele>
        <time>2018-01-25T13:07:47Z</time>
      </trkpt>
      <trkpt lat="46.382355" lon="15.187998">
        <ele>975.00</ele>
        <time>2018-01-25T13:07:49Z</time>
      </trkpt>
      <trkpt lat="46.382345" lon="15.187988">
        <ele>975.00</ele>
        <time>2018-01-25T13:07:50Z</time>
      </trkpt>
      <trkpt lat="46.382325" lon="15.187972">
        <ele>975.00</ele>
        <time>2018-01-25T13:07:55Z</time>
      </trkpt>
      <trkpt lat="46.382310" lon="15.187954">
        <ele>975.00</ele>
        <time>2018-01-25T13:07:57Z</time>
      </trkpt>
      <trkpt lat="46.382310" lon="15.187919">
        <ele>975.00</ele>
        <time>2018-01-25T13:07:59Z</time>
      </trkpt>
      <trkpt lat="46.382305" lon="15.187892">
        <ele>975.00</ele>
        <time>2018-01-25T13:08:01Z</time>
      </trkpt>
      <trkpt lat="46.382302" lon="15.187877">
        <ele>975.00</ele>
        <time>2018-01-25T13:08:02Z</time>
      </trkpt>
      <trkpt lat="46.382302" lon="15.187850">
        <ele>975.00</ele>
        <time>2018-01-25T13:08:04Z</time>
      </trkpt>
      <trkpt lat="46.382279" lon="15.187816">
        <ele>975.00</ele>
        <time>2018-01-25T13:08:06Z</time>
      </trkpt>
      <trkpt lat="46.382253" lon="15.187789">
        <ele>975.00</ele>
        <time>2018-01-25T13:08:08Z</time>
      </trkpt>
      <trkpt lat="46.382241" lon="15.187784">
        <ele>975.00</ele>
        <time>2018-01-25T13:08:10Z</time>
      </trkpt>
      <trkpt lat="46.382233" lon="15.187778">
        <ele>975.00</ele>
        <time>2018-01-25T13:08:12Z</time>
      </trkpt>
      <trkpt lat="46.382217" lon="15.187771">
        <ele>975.00</ele>
        <time>2018-01-25T13:08:13Z</time>
      </trkpt>
      <trkpt lat="46.382189" lon="15.187741">
        <ele>975.00</ele>
        <time>2018-01-25T13:08:15Z</time>
      </trkpt>
      <trkpt lat="46.382169" lon="15.187709">
        <ele>975.00</ele>
        <time>2018-01-25T13:08:17Z</time>
      </trkpt>
      <trkpt lat="46.382142" lon="15.187684">
        <ele>975.00</ele>
        <time>2018-01-25T13:08:19Z</time>
      </trkpt>
      <trkpt lat="46.382119" lon="15.187648">
        <ele>975.00</ele>
        <time>2018-01-25T13:08:21Z</time>
      </trkpt>
      <trkpt lat="46.382100" lon="15.187613">
        <ele>972.00</ele>
        <time>2018-01-25T13:08:23Z</time>
      </trkpt>
      <trkpt lat="46.382071" lon="15.187576">
        <ele>972.00</ele>
        <time>2018-01-25T13:08:25Z</time>
      </trkpt>
      <trkpt lat="46.382056" lon="15.187559">
        <ele>972.00</ele>
        <time>2018-01-25T13:08:26Z</time>
      </trkpt>
      <trkpt lat="46.382024" lon="15.187512">
        <ele>971.00</ele>
        <time>2018-01-25T13:08:28Z</time>
      </trkpt>
      <trkpt lat="46.381982" lon="15.187470">
        <ele>971.00</ele>
        <time>2018-01-25T13:08:30Z</time>
      </trkpt>
      <trkpt lat="46.381958" lon="15.187459">
        <ele>971.00</ele>
        <time>2018-01-25T13:08:32Z</time>
      </trkpt>
      <trkpt lat="46.381936" lon="15.187461">
        <ele>971.00</ele>
        <time>2018-01-25T13:08:34Z</time>
      </trkpt>
      <trkpt lat="46.381915" lon="15.187460">
        <ele>971.00</ele>
        <time>2018-01-25T13:08:36Z</time>
      </trkpt>
      <trkpt lat="46.381899" lon="15.187453">
        <ele>971.00</ele>
        <time>2018-01-25T13:08:38Z</time>
      </trkpt>
      <trkpt lat="46.381876" lon="15.187448">
        <ele>971.00</ele>
        <time>2018-01-25T13:08:40Z</time>
      </trkpt>
      <trkpt lat="46.381855" lon="15.187436">
        <ele>971.51</ele>
        <time>2018-01-25T13:08:42Z</time>
      </trkpt>
      <trkpt lat="46.381834" lon="15.187423">
        <ele>973.00</ele>
        <time>2018-01-25T13:08:44Z</time>
      </trkpt>
      <trkpt lat="46.381813" lon="15.187415">
        <ele>973.00</ele>
        <time>2018-01-25T13:08:46Z</time>
      </trkpt>
      <trkpt lat="46.381795" lon="15.187399">
        <ele>973.00</ele>
        <time>2018-01-25T13:08:48Z</time>
      </trkpt>
      <trkpt lat="46.381783" lon="15.187387">
        <ele>973.00</ele>
        <time>2018-01-25T13:08:49Z</time>
      </trkpt>
      <trkpt lat="46.381763" lon="15.187363">
        <ele>973.00</ele>
        <time>2018-01-25T13:08:51Z</time>
      </trkpt>
      <trkpt lat="46.381747" lon="15.187329">
        <ele>974.00</ele>
        <time>2018-01-25T13:08:53Z</time>
      </trkpt>
      <trkpt lat="46.381731" lon="15.187303">
        <ele>974.00</ele>
        <time>2018-01-25T13:08:55Z</time>
      </trkpt>
      <trkpt lat="46.381718" lon="15.187280">
        <ele>974.00</ele>
        <time>2018-01-25T13:08:57Z</time>
      </trkpt>
      <trkpt lat="46.381705" lon="15.187250">
        <ele>974.00</ele>
        <time>2018-01-25T13:08:59Z</time>
      </trkpt>
      <trkpt lat="46.381694" lon="15.187216">
        <ele>974.00</ele>
        <time>2018-01-25T13:09:01Z</time>
      </trkpt>
      <trkpt lat="46.381679" lon="15.187179">
        <ele>975.00</ele>
        <time>2018-01-25T13:09:03Z</time>
      </trkpt>
      <trkpt lat="46.381664" lon="15.187143">
        <ele>975.00</ele>
        <time>2018-01-25T13:09:05Z</time>
      </trkpt>
      <trkpt lat="46.381656" lon="15.187130">
        <ele>975.00</ele>
        <time>2018-01-25T13:09:06Z</time>
      </trkpt>
      <trkpt lat="46.381642" lon="15.187102">
        <ele>975.00</ele>
        <time>2018-01-25T13:09:08Z</time>
      </trkpt>
      <trkpt lat="46.381617" lon="15.187070">
        <ele>975.00</ele>
        <time>2018-01-25T13:09:10Z</time>
      </trkpt>
      <trkpt lat="46.381595" lon="15.187047">
        <ele>975.25</ele>
        <time>2018-01-25T13:09:12Z</time>
      </trkpt>
      <trkpt lat="46.381572" lon="15.187021">
        <ele>976.00</ele>
        <time>2018-01-25T13:09:14Z</time>
      </trkpt>
      <trkpt lat="46.381548" lon="15.187004">
        <ele>976.00</ele>
        <time>2018-01-25T13:09:16Z</time>
      </trkpt>
      <trkpt lat="46.381524" lon="15.186986">
        <ele>976.00</ele>
        <time>2018-01-25T13:09:18Z</time>
      </trkpt>
      <trkpt lat="46.381512" lon="15.186977">
        <ele>976.00</ele>
        <time>2018-01-25T13:09:19Z</time>
      </trkpt>
      <trkpt lat="46.381490" lon="15.186952">
        <ele>976.00</ele>
        <time>2018-01-25T13:09:21Z</time>
      </trkpt>
      <trkpt lat="46.381464" lon="15.186940">
        <ele>977.00</ele>
        <time>2018-01-25T13:09:23Z</time>
      </trkpt>
      <trkpt lat="46.381452" lon="15.186930">
        <ele>977.00</ele>
        <time>2018-01-25T13:09:24Z</time>
      </trkpt>
      <trkpt lat="46.381432" lon="15.186906">
        <ele>977.00</ele>
        <time>2018-01-25T13:09:26Z</time>
      </trkpt>
      <trkpt lat="46.381418" lon="15.186886">
        <ele>977.00</ele>
        <time>2018-01-25T13:09:28Z</time>
      </trkpt>
      <trkpt lat="46.381398" lon="15.186863">
        <ele>977.00</ele>
        <time>2018-01-25T13:09:30Z</time>
      </trkpt>
      <trkpt lat="46.381379" lon="15.186832">
        <ele>977.00</ele>
        <time>2018-01-25T13:09:32Z</time>
      </trkpt>
      <trkpt lat="46.381356" lon="15.186808">
        <ele>977.00</ele>
        <time>2018-01-25T13:09:34Z</time>
      </trkpt>
      <trkpt lat="46.381329" lon="15.186798">
        <ele>977.00</ele>
        <time>2018-01-25T13:09:36Z</time>
      </trkpt>
      <trkpt lat="46.381306" lon="15.186776">
        <ele>977.00</ele>
        <time>2018-01-25T13:09:38Z</time>
      </trkpt>
      <trkpt lat="46.381285" lon="15.186759">
        <ele>977.00</ele>
        <time>2018-01-25T13:09:40Z</time>
      </trkpt>
      <trkpt lat="46.381265" lon="15.186743">
        <ele>977.25</ele>
        <time>2018-01-25T13:09:42Z</time>
      </trkpt>
      <trkpt lat="46.381237" lon="15.186731">
        <ele>978.00</ele>
        <time>2018-01-25T13:09:44Z</time>
      </trkpt>
      <trkpt lat="46.381213" lon="15.186727">
        <ele>978.00</ele>
        <time>2018-01-25T13:09:46Z</time>
      </trkpt>
      <trkpt lat="46.381184" lon="15.186711">
        <ele>978.00</ele>
        <time>2018-01-25T13:09:48Z</time>
      </trkpt>
      <trkpt lat="46.381164" lon="15.186700">
        <ele>978.00</ele>
        <time>2018-01-25T13:09:50Z</time>
      </trkpt>
      <trkpt lat="46.381139" lon="15.186696">
        <ele>978.51</ele>
        <time>2018-01-25T13:09:52Z</time>
      </trkpt>
      <trkpt lat="46.381114" lon="15.186700">
        <ele>980.00</ele>
        <time>2018-01-25T13:09:54Z</time>
      </trkpt>
      <trkpt lat="46.381088" lon="15.186703">
        <ele>980.00</ele>
        <time>2018-01-25T13:09:56Z</time>
      </trkpt>
      <trkpt lat="46.381064" lon="15.186706">
        <ele>980.00</ele>
        <time>2018-01-25T13:09:58Z</time>
      </trkpt>
      <trkpt lat="46.381048" lon="15.186713">
        <ele>980.00</ele>
        <time>2018-01-25T13:10:00Z</time>
      </trkpt>
      <trkpt lat="46.381038" lon="15.186715">
        <ele>980.00</ele>
        <time>2018-01-25T13:10:01Z</time>
      </trkpt>
      <trkpt lat="46.381021" lon="15.186724">
        <ele>982.00</ele>
        <time>2018-01-25T13:10:03Z</time>
      </trkpt>
      <trkpt lat="46.380999" lon="15.186730">
        <ele>982.00</ele>
        <time>2018-01-25T13:10:05Z</time>
      </trkpt>
      <trkpt lat="46.380981" lon="15.186737">
        <ele>982.00</ele>
        <time>2018-01-25T13:10:07Z</time>
      </trkpt>
      <trkpt lat="46.380967" lon="15.186757">
        <ele>983.00</ele>
        <time>2018-01-25T13:10:32Z</time>
      </trkpt>
      <trkpt lat="46.380948" lon="15.186751">
        <ele>983.00</ele>
        <time>2018-01-25T13:10:34Z</time>
      </trkpt>
      <trkpt lat="46.380937" lon="15.186752">
        <ele>983.00</ele>
        <time>2018-01-25T13:10:35Z</time>
      </trkpt>
      <trkpt lat="46.380925" lon="15.186767">
        <ele>983.00</ele>
        <time>2018-01-25T13:10:37Z</time>
      </trkpt>
      <trkpt lat="46.380910" lon="15.186772">
        <ele>983.00</ele>
        <time>2018-01-25T13:10:40Z</time>
      </trkpt>
      <trkpt lat="46.380883" lon="15.186796">
        <ele>983.25</ele>
        <time>2018-01-25T13:10:42Z</time>
      </trkpt>
      <trkpt lat="46.380861" lon="15.186797">
        <ele>984.00</ele>
        <time>2018-01-25T13:10:43Z</time>
      </trkpt>
      <trkpt lat="46.380828" lon="15.186798">
        <ele>984.00</ele>
        <time>2018-01-25T13:10:45Z</time>
      </trkpt>
      <trkpt lat="46.380815" lon="15.186807">
        <ele>984.00</ele>
        <time>2018-01-25T13:10:46Z</time>
      </trkpt>
      <trkpt lat="46.380796" lon="15.186805">
        <ele>984.00</ele>
        <time>2018-01-25T13:10:48Z</time>
      </trkpt>
      <trkpt lat="46.380768" lon="15.186806">
        <ele>984.00</ele>
        <time>2018-01-25T13:10:50Z</time>
      </trkpt>
      <trkpt lat="46.380756" lon="15.186809">
        <ele>984.00</ele>
        <time>2018-01-25T13:10:51Z</time>
      </trkpt>
      <trkpt lat="46.380732" lon="15.186801">
        <ele>985.00</ele>
        <time>2018-01-25T13:10:53Z</time>
      </trkpt>
      <trkpt lat="46.380708" lon="15.186811">
        <ele>985.00</ele>
        <time>2018-01-25T13:10:55Z</time>
      </trkpt>
      <trkpt lat="46.380685" lon="15.186813">
        <ele>985.00</ele>
        <time>2018-01-25T13:10:57Z</time>
      </trkpt>
      <trkpt lat="46.380661" lon="15.186804">
        <ele>985.00</ele>
        <time>2018-01-25T13:10:59Z</time>
      </trkpt>
      <trkpt lat="46.380639" lon="15.186802">
        <ele>985.00</ele>
        <time>2018-01-25T13:11:01Z</time>
      </trkpt>
      <trkpt lat="46.380612" lon="15.186804">
        <ele>986.00</ele>
        <time>2018-01-25T13:11:03Z</time>
      </trkpt>
      <trkpt lat="46.380587" lon="15.186806">
        <ele>986.00</ele>
        <time>2018-01-25T13:11:05Z</time>
      </trkpt>
      <trkpt lat="46.380558" lon="15.186814">
        <ele>986.00</ele>
        <time>2018-01-25T13:11:07Z</time>
      </trkpt>
      <trkpt lat="46.380542" lon="15.186826">
        <ele>986.00</ele>
        <time>2018-01-25T13:11:09Z</time>
      </trkpt>
      <trkpt lat="46.380516" lon="15.186833">
        <ele>986.00</ele>
        <time>2018-01-25T13:11:11Z</time>
      </trkpt>
      <trkpt lat="46.380496" lon="15.186826">
        <ele>987.00</ele>
        <time>2018-01-25T13:11:13Z</time>
      </trkpt>
      <trkpt lat="46.380481" lon="15.186826">
        <ele>987.00</ele>
        <time>2018-01-25T13:11:15Z</time>
      </trkpt>
      <trkpt lat="46.380461" lon="15.186829">
        <ele>987.00</ele>
        <time>2018-01-25T13:11:17Z</time>
      </trkpt>
      <trkpt lat="46.380443" lon="15.186830">
        <ele>987.00</ele>
        <time>2018-01-25T13:11:20Z</time>
      </trkpt>
      <trkpt lat="46.380430" lon="15.186817">
        <ele>987.25</ele>
        <time>2018-01-25T13:11:22Z</time>
      </trkpt>
      <trkpt lat="46.380409" lon="15.186807">
        <ele>988.00</ele>
        <time>2018-01-25T13:11:25Z</time>
      </trkpt>
      <trkpt lat="46.380387" lon="15.186788">
        <ele>988.00</ele>
        <time>2018-01-25T13:11:27Z</time>
      </trkpt>
      <trkpt lat="46.380357" lon="15.186785">
        <ele>988.00</ele>
        <time>2018-01-25T13:11:29Z</time>
      </trkpt>
      <trkpt lat="46.380335" lon="15.186785">
        <ele>988.00</ele>
        <time>2018-01-25T13:11:31Z</time>
      </trkpt>
      <trkpt lat="46.380323" lon="15.186783">
        <ele>988.25</ele>
        <time>2018-01-25T13:11:32Z</time>
      </trkpt>
      <trkpt lat="46.380302" lon="15.186783">
        <ele>989.00</ele>
        <time>2018-01-25T13:11:34Z</time>
      </trkpt>
      <trkpt lat="46.380283" lon="15.186789">
        <ele>989.00</ele>
        <time>2018-01-25T13:11:35Z</time>
      </trkpt>
      <trkpt lat="46.380266" lon="15.186781">
        <ele>989.00</ele>
        <time>2018-01-25T13:11:37Z</time>
      </trkpt>
      <trkpt lat="46.380252" lon="15.186771">
        <ele>989.00</ele>
        <time>2018-01-25T13:11:39Z</time>
      </trkpt>
      <trkpt lat="46.380229" lon="15.186766">
        <ele>989.00</ele>
        <time>2018-01-25T13:11:41Z</time>
      </trkpt>
      <trkpt lat="46.380211" lon="15.186757">
        <ele>989.00</ele>
        <time>2018-01-25T13:11:43Z</time>
      </trkpt>
      <trkpt lat="46.380191" lon="15.186744">
        <ele>989.00</ele>
        <time>2018-01-25T13:11:45Z</time>
      </trkpt>
      <trkpt lat="46.380175" lon="15.186732">
        <ele>989.00</ele>
        <time>2018-01-25T13:11:47Z</time>
      </trkpt>
      <trkpt lat="46.380158" lon="15.186736">
        <ele>989.00</ele>
        <time>2018-01-25T13:11:49Z</time>
      </trkpt>
      <trkpt lat="46.380130" lon="15.186739">
        <ele>989.25</ele>
        <time>2018-01-25T13:11:52Z</time>
      </trkpt>
      <trkpt lat="46.380105" lon="15.186733">
        <ele>990.00</ele>
        <time>2018-01-25T13:11:54Z</time>
      </trkpt>
      <trkpt lat="46.380093" lon="15.186732">
        <ele>990.00</ele>
        <time>2018-01-25T13:11:55Z</time>
      </trkpt>
      <trkpt lat="46.380064" lon="15.186735">
        <ele>990.00</ele>
        <time>2018-01-25T13:11:57Z</time>
      </trkpt>
      <trkpt lat="46.380042" lon="15.186736">
        <ele>990.00</ele>
        <time>2018-01-25T13:11:59Z</time>
      </trkpt>
      <trkpt lat="46.380025" lon="15.186743">
        <ele>990.00</ele>
        <time>2018-01-25T13:12:01Z</time>
      </trkpt>
      <trkpt lat="46.380015" lon="15.186741">
        <ele>990.00</ele>
        <time>2018-01-25T13:12:02Z</time>
      </trkpt>
      <trkpt lat="46.379993" lon="15.186721">
        <ele>990.00</ele>
        <time>2018-01-25T13:12:04Z</time>
      </trkpt>
      <trkpt lat="46.379974" lon="15.186681">
        <ele>990.00</ele>
        <time>2018-01-25T13:12:06Z</time>
      </trkpt>
      <trkpt lat="46.379959" lon="15.186674">
        <ele>990.00</ele>
        <time>2018-01-25T13:12:07Z</time>
      </trkpt>
      <trkpt lat="46.379930" lon="15.186672">
        <ele>990.00</ele>
        <time>2018-01-25T13:12:09Z</time>
      </trkpt>
      <trkpt lat="46.379919" lon="15.186669">
        <ele>990.00</ele>
        <time>2018-01-25T13:12:10Z</time>
      </trkpt>
      <trkpt lat="46.379891" lon="15.186663">
        <ele>990.00</ele>
        <time>2018-01-25T13:12:12Z</time>
      </trkpt>
      <trkpt lat="46.379863" lon="15.186666">
        <ele>990.00</ele>
        <time>2018-01-25T13:12:14Z</time>
      </trkpt>
      <trkpt lat="46.379833" lon="15.186677">
        <ele>990.00</ele>
        <time>2018-01-25T13:12:16Z</time>
      </trkpt>
      <trkpt lat="46.379814" lon="15.186691">
        <ele>990.00</ele>
        <time>2018-01-25T13:12:18Z</time>
      </trkpt>
      <trkpt lat="46.379797" lon="15.186701">
        <ele>990.00</ele>
        <time>2018-01-25T13:12:20Z</time>
      </trkpt>
      <trkpt lat="46.379788" lon="15.186705">
        <ele>990.00</ele>
        <time>2018-01-25T13:12:21Z</time>
      </trkpt>
      <trkpt lat="46.379756" lon="15.186707">
        <ele>990.00</ele>
        <time>2018-01-25T13:12:23Z</time>
      </trkpt>
      <trkpt lat="46.379714" lon="15.186720">
        <ele>990.00</ele>
        <time>2018-01-25T13:12:25Z</time>
      </trkpt>
      <trkpt lat="46.379685" lon="15.186720">
        <ele>990.00</ele>
        <time>2018-01-25T13:12:27Z</time>
      </trkpt>
      <trkpt lat="46.379663" lon="15.186724">
        <ele>990.00</ele>
        <time>2018-01-25T13:12:29Z</time>
      </trkpt>
      <trkpt lat="46.379642" lon="15.186725">
        <ele>990.00</ele>
        <time>2018-01-25T13:12:31Z</time>
      </trkpt>
      <trkpt lat="46.379611" lon="15.186731">
        <ele>992.00</ele>
        <time>2018-01-25T13:12:33Z</time>
      </trkpt>
      <trkpt lat="46.379574" lon="15.186743">
        <ele>992.00</ele>
        <time>2018-01-25T13:12:35Z</time>
      </trkpt>
      <trkpt lat="46.379562" lon="15.186758">
        <ele>992.00</ele>
        <time>2018-01-25T13:12:37Z</time>
      </trkpt>
      <trkpt lat="46.379534" lon="15.186760">
        <ele>992.00</ele>
        <time>2018-01-25T13:12:40Z</time>
      </trkpt>
      <trkpt lat="46.379515" lon="15.186769">
        <ele>992.51</ele>
        <time>2018-01-25T13:12:42Z</time>
      </trkpt>
      <trkpt lat="46.379486" lon="15.186784">
        <ele>994.00</ele>
        <time>2018-01-25T13:12:45Z</time>
      </trkpt>
      <trkpt lat="46.379470" lon="15.186785">
        <ele>994.00</ele>
        <time>2018-01-25T13:12:47Z</time>
      </trkpt>
      <trkpt lat="46.379459" lon="15.186783">
        <ele>994.00</ele>
        <time>2018-01-25T13:12:48Z</time>
      </trkpt>
      <trkpt lat="46.379438" lon="15.186790">
        <ele>994.00</ele>
        <time>2018-01-25T13:12:50Z</time>
      </trkpt>
      <trkpt lat="46.379429" lon="15.186796">
        <ele>994.00</ele>
        <time>2018-01-25T13:12:51Z</time>
      </trkpt>
      <trkpt lat="46.379415" lon="15.186805">
        <ele>994.00</ele>
        <time>2018-01-25T13:12:53Z</time>
      </trkpt>
      <trkpt lat="46.379396" lon="15.186817">
        <ele>994.00</ele>
        <time>2018-01-25T13:12:55Z</time>
      </trkpt>
      <trkpt lat="46.379368" lon="15.186821">
        <ele>994.00</ele>
        <time>2018-01-25T13:12:58Z</time>
      </trkpt>
      <trkpt lat="46.379347" lon="15.186836">
        <ele>994.00</ele>
        <time>2018-01-25T13:13:00Z</time>
      </trkpt>
      <trkpt lat="46.379328" lon="15.186857">
        <ele>994.51</ele>
        <time>2018-01-25T13:13:02Z</time>
      </trkpt>
      <trkpt lat="46.379309" lon="15.186881">
        <ele>996.00</ele>
        <time>2018-01-25T13:13:04Z</time>
      </trkpt>
      <trkpt lat="46.379292" lon="15.186893">
        <ele>996.00</ele>
        <time>2018-01-25T13:13:06Z</time>
      </trkpt>
      <trkpt lat="46.379263" lon="15.186893">
        <ele>996.00</ele>
        <time>2018-01-25T13:13:08Z</time>
      </trkpt>
      <trkpt lat="46.379234" lon="15.186905">
        <ele>996.00</ele>
        <time>2018-01-25T13:13:10Z</time>
      </trkpt>
      <trkpt lat="46.379207" lon="15.186894">
        <ele>996.00</ele>
        <time>2018-01-25T13:13:12Z</time>
      </trkpt>
      <trkpt lat="46.379181" lon="15.186890">
        <ele>996.00</ele>
        <time>2018-01-25T13:13:14Z</time>
      </trkpt>
      <trkpt lat="46.379168" lon="15.186889">
        <ele>996.00</ele>
        <time>2018-01-25T13:13:15Z</time>
      </trkpt>
      <trkpt lat="46.379149" lon="15.186887">
        <ele>996.00</ele>
        <time>2018-01-25T13:13:17Z</time>
      </trkpt>
      <trkpt lat="46.379140" lon="15.186894">
        <ele>996.00</ele>
        <time>2018-01-25T13:13:18Z</time>
      </trkpt>
      <trkpt lat="46.379116" lon="15.186907">
        <ele>996.00</ele>
        <time>2018-01-25T13:13:20Z</time>
      </trkpt>
      <trkpt lat="46.379089" lon="15.186915">
        <ele>996.51</ele>
        <time>2018-01-25T13:13:22Z</time>
      </trkpt>
      <trkpt lat="46.379075" lon="15.186921">
        <ele>998.00</ele>
        <time>2018-01-25T13:13:23Z</time>
      </trkpt>
      <trkpt lat="46.379062" lon="15.186925">
        <ele>998.00</ele>
        <time>2018-01-25T13:13:25Z</time>
      </trkpt>
      <trkpt lat="46.379039" lon="15.186921">
        <ele>998.00</ele>
        <time>2018-01-25T13:13:27Z</time>
      </trkpt>
      <trkpt lat="46.379027" lon="15.186926">
        <ele>998.00</ele>
        <time>2018-01-25T13:13:29Z</time>
      </trkpt>
      <trkpt lat="46.379010" lon="15.186926">
        <ele>998.00</ele>
        <time>2018-01-25T13:13:31Z</time>
      </trkpt>
      <trkpt lat="46.378982" lon="15.186937">
        <ele>1000.00</ele>
        <time>2018-01-25T13:13:33Z</time>
      </trkpt>
      <trkpt lat="46.378967" lon="15.186945">
        <ele>1000.00</ele>
        <time>2018-01-25T13:13:35Z</time>
      </trkpt>
      <trkpt lat="46.378944" lon="15.186947">
        <ele>1000.00</ele>
        <time>2018-01-25T13:13:38Z</time>
      </trkpt>
      <trkpt lat="46.378920" lon="15.186952">
        <ele>1000.00</ele>
        <time>2018-01-25T13:13:40Z</time>
      </trkpt>
      <trkpt lat="46.378903" lon="15.186953">
        <ele>1000.25</ele>
        <time>2018-01-25T13:13:42Z</time>
      </trkpt>
      <trkpt lat="46.378878" lon="15.186965">
        <ele>1001.00</ele>
        <time>2018-01-25T13:13:44Z</time>
      </trkpt>
      <trkpt lat="46.378854" lon="15.186981">
        <ele>1001.00</ele>
        <time>2018-01-25T13:13:47Z</time>
      </trkpt>
      <trkpt lat="46.378843" lon="15.186993">
        <ele>1001.00</ele>
        <time>2018-01-25T13:13:49Z</time>
      </trkpt>
      <trkpt lat="46.378827" lon="15.187000">
        <ele>1001.00</ele>
        <time>2018-01-25T13:13:51Z</time>
      </trkpt>
      <trkpt lat="46.378809" lon="15.187000">
        <ele>1003.00</ele>
        <time>2018-01-25T13:13:53Z</time>
      </trkpt>
      <trkpt lat="46.378787" lon="15.187008">
        <ele>1003.00</ele>
        <time>2018-01-25T13:13:55Z</time>
      </trkpt>
      <trkpt lat="46.378760" lon="15.187013">
        <ele>1003.00</ele>
        <time>2018-01-25T13:13:57Z</time>
      </trkpt>
      <trkpt lat="46.378739" lon="15.187022">
        <ele>1003.00</ele>
        <time>2018-01-25T13:13:59Z</time>
      </trkpt>
      <trkpt lat="46.378717" lon="15.187035">
        <ele>1003.00</ele>
        <time>2018-01-25T13:14:01Z</time>
      </trkpt>
      <trkpt lat="46.378692" lon="15.187043">
        <ele>1005.00</ele>
        <time>2018-01-25T13:14:03Z</time>
      </trkpt>
      <trkpt lat="46.378670" lon="15.187054">
        <ele>1005.00</ele>
        <time>2018-01-25T13:14:05Z</time>
      </trkpt>
      <trkpt lat="46.378650" lon="15.187075">
        <ele>1005.00</ele>
        <time>2018-01-25T13:14:07Z</time>
      </trkpt>
      <trkpt lat="46.378630" lon="15.187094">
        <ele>1005.00</ele>
        <time>2018-01-25T13:14:09Z</time>
      </trkpt>
      <trkpt lat="46.378609" lon="15.187109">
        <ele>1005.00</ele>
        <time>2018-01-25T13:14:11Z</time>
      </trkpt>
      <trkpt lat="46.378590" lon="15.187123">
        <ele>1006.00</ele>
        <time>2018-01-25T13:14:13Z</time>
      </trkpt>
      <trkpt lat="46.378579" lon="15.187134">
        <ele>1006.00</ele>
        <time>2018-01-25T13:14:14Z</time>
      </trkpt>
      <trkpt lat="46.378568" lon="15.187162">
        <ele>1006.00</ele>
        <time>2018-01-25T13:14:16Z</time>
      </trkpt>
      <trkpt lat="46.378558" lon="15.187184">
        <ele>1006.00</ele>
        <time>2018-01-25T13:14:18Z</time>
      </trkpt>
      <trkpt lat="46.378544" lon="15.187206">
        <ele>1006.00</ele>
        <time>2018-01-25T13:14:20Z</time>
      </trkpt>
      <trkpt lat="46.378533" lon="15.187233">
        <ele>1006.51</ele>
        <time>2018-01-25T13:14:22Z</time>
      </trkpt>
      <trkpt lat="46.378543" lon="15.187253">
        <ele>1008.00</ele>
        <time>2018-01-25T13:14:24Z</time>
      </trkpt>
      <trkpt lat="46.378545" lon="15.187270">
        <ele>1008.00</ele>
        <time>2018-01-25T13:14:26Z</time>
      </trkpt>
      <trkpt lat="46.378535" lon="15.187285">
        <ele>1008.00</ele>
        <time>2018-01-25T13:14:27Z</time>
      </trkpt>
      <trkpt lat="46.378497" lon="15.187330">
        <ele>1008.00</ele>
        <time>2018-01-25T13:14:29Z</time>
      </trkpt>
      <trkpt lat="46.378489" lon="15.187371">
        <ele>1008.00</ele>
        <time>2018-01-25T13:14:31Z</time>
      </trkpt>
      <trkpt lat="46.378487" lon="15.187387">
        <ele>1008.00</ele>
        <time>2018-01-25T13:14:34Z</time>
      </trkpt>
      <trkpt lat="46.378486" lon="15.187413">
        <ele>1008.00</ele>
        <time>2018-01-25T13:14:36Z</time>
      </trkpt>
      <trkpt lat="46.378461" lon="15.187455">
        <ele>1008.00</ele>
        <time>2018-01-25T13:14:38Z</time>
      </trkpt>
      <trkpt lat="46.378433" lon="15.187494">
        <ele>1008.00</ele>
        <time>2018-01-25T13:14:40Z</time>
      </trkpt>
      <trkpt lat="46.378422" lon="15.187517">
        <ele>1008.25</ele>
        <time>2018-01-25T13:14:42Z</time>
      </trkpt>
      <trkpt lat="46.378413" lon="15.187527">
        <ele>1009.00</ele>
        <time>2018-01-25T13:14:44Z</time>
      </trkpt>
      <trkpt lat="46.378404" lon="15.187536">
        <ele>1009.00</ele>
        <time>2018-01-25T13:14:45Z</time>
      </trkpt>
      <trkpt lat="46.378376" lon="15.187575">
        <ele>1009.00</ele>
        <time>2018-01-25T13:14:47Z</time>
      </trkpt>
      <trkpt lat="46.378346" lon="15.187603">
        <ele>1009.00</ele>
        <time>2018-01-25T13:14:49Z</time>
      </trkpt>
      <trkpt lat="46.378334" lon="15.187619">
        <ele>1009.00</ele>
        <time>2018-01-25T13:14:51Z</time>
      </trkpt>
      <trkpt lat="46.378322" lon="15.187636">
        <ele>1010.00</ele>
        <time>2018-01-25T13:14:53Z</time>
      </trkpt>
      <trkpt lat="46.378306" lon="15.187643">
        <ele>1010.00</ele>
        <time>2018-01-25T13:14:54Z</time>
      </trkpt>
      <trkpt lat="46.378273" lon="15.187668">
        <ele>1010.00</ele>
        <time>2018-01-25T13:14:56Z</time>
      </trkpt>
      <trkpt lat="46.378236" lon="15.187702">
        <ele>1010.00</ele>
        <time>2018-01-25T13:14:58Z</time>
      </trkpt>
      <trkpt lat="46.378222" lon="15.187719">
        <ele>1010.00</ele>
        <time>2018-01-25T13:15:00Z</time>
      </trkpt>
      <trkpt lat="46.378216" lon="15.187735">
        <ele>1010.25</ele>
        <time>2018-01-25T13:15:02Z</time>
      </trkpt>
      <trkpt lat="46.378191" lon="15.187753">
        <ele>1011.00</ele>
        <time>2018-01-25T13:15:04Z</time>
      </trkpt>
      <trkpt lat="46.378153" lon="15.187784">
        <ele>1011.00</ele>
        <time>2018-01-25T13:15:06Z</time>
      </trkpt>
      <trkpt lat="46.378136" lon="15.187800">
        <ele>1011.00</ele>
        <time>2018-01-25T13:15:07Z</time>
      </trkpt>
      <trkpt lat="46.378119" lon="15.187819">
        <ele>1011.00</ele>
        <time>2018-01-25T13:15:09Z</time>
      </trkpt>
      <trkpt lat="46.378100" lon="15.187853">
        <ele>1011.00</ele>
        <time>2018-01-25T13:15:13Z</time>
      </trkpt>
      <trkpt lat="46.378062" lon="15.187891">
        <ele>1011.00</ele>
        <time>2018-01-25T13:15:15Z</time>
      </trkpt>
      <trkpt lat="46.378050" lon="15.187907">
        <ele>1011.00</ele>
        <time>2018-01-25T13:15:16Z</time>
      </trkpt>
      <trkpt lat="46.378030" lon="15.187934">
        <ele>1011.00</ele>
        <time>2018-01-25T13:15:18Z</time>
      </trkpt>
      <trkpt lat="46.378018" lon="15.187946">
        <ele>1011.00</ele>
        <time>2018-01-25T13:15:20Z</time>
      </trkpt>
      <trkpt lat="46.378007" lon="15.187965">
        <ele>1012.00</ele>
        <time>2018-01-25T13:15:23Z</time>
      </trkpt>
      <trkpt lat="46.377976" lon="15.187992">
        <ele>1012.00</ele>
        <time>2018-01-25T13:15:25Z</time>
      </trkpt>
      <trkpt lat="46.377954" lon="15.188011">
        <ele>1012.00</ele>
        <time>2018-01-25T13:15:26Z</time>
      </trkpt>
      <trkpt lat="46.377912" lon="15.188048">
        <ele>1012.00</ele>
        <time>2018-01-25T13:15:28Z</time>
      </trkpt>
      <trkpt lat="46.377892" lon="15.188070">
        <ele>1012.00</ele>
        <time>2018-01-25T13:15:30Z</time>
      </trkpt>
      <trkpt lat="46.377885" lon="15.188086">
        <ele>1012.00</ele>
        <time>2018-01-25T13:15:32Z</time>
      </trkpt>
      <trkpt lat="46.377882" lon="15.188106">
        <ele>1012.00</ele>
        <time>2018-01-25T13:15:35Z</time>
      </trkpt>
      <trkpt lat="46.377851" lon="15.188143">
        <ele>1012.00</ele>
        <time>2018-01-25T13:15:37Z</time>
      </trkpt>
      <trkpt lat="46.377820" lon="15.188182">
        <ele>1012.00</ele>
        <time>2018-01-25T13:15:39Z</time>
      </trkpt>
      <trkpt lat="46.377807" lon="15.188198">
        <ele>1012.00</ele>
        <time>2018-01-25T13:15:41Z</time>
      </trkpt>
      <trkpt lat="46.377781" lon="15.188226">
        <ele>1014.00</ele>
        <time>2018-01-25T13:15:45Z</time>
      </trkpt>
      <trkpt lat="46.377769" lon="15.188235">
        <ele>1014.00</ele>
        <time>2018-01-25T13:15:46Z</time>
      </trkpt>
      <trkpt lat="46.377746" lon="15.188258">
        <ele>1014.00</ele>
        <time>2018-01-25T13:15:48Z</time>
      </trkpt>
      <trkpt lat="46.377733" lon="15.188275">
        <ele>1014.00</ele>
        <time>2018-01-25T13:15:49Z</time>
      </trkpt>
      <trkpt lat="46.377713" lon="15.188297">
        <ele>1014.00</ele>
        <time>2018-01-25T13:15:51Z</time>
      </trkpt>
      <trkpt lat="46.377695" lon="15.188321">
        <ele>1014.00</ele>
        <time>2018-01-25T13:15:53Z</time>
      </trkpt>
      <trkpt lat="46.377672" lon="15.188346">
        <ele>1014.00</ele>
        <time>2018-01-25T13:15:55Z</time>
      </trkpt>
      <trkpt lat="46.377661" lon="15.188362">
        <ele>1014.00</ele>
        <time>2018-01-25T13:15:56Z</time>
      </trkpt>
      <trkpt lat="46.377649" lon="15.188387">
        <ele>1014.00</ele>
        <time>2018-01-25T13:15:58Z</time>
      </trkpt>
      <trkpt lat="46.377637" lon="15.188407">
        <ele>1014.00</ele>
        <time>2018-01-25T13:15:59Z</time>
      </trkpt>
      <trkpt lat="46.377623" lon="15.188434">
        <ele>1014.00</ele>
        <time>2018-01-25T13:16:01Z</time>
      </trkpt>
      <trkpt lat="46.377620" lon="15.188456">
        <ele>1015.00</ele>
        <time>2018-01-25T13:16:03Z</time>
      </trkpt>
      <trkpt lat="46.377601" lon="15.188481">
        <ele>1015.00</ele>
        <time>2018-01-25T13:16:05Z</time>
      </trkpt>
      <trkpt lat="46.377585" lon="15.188496">
        <ele>1015.00</ele>
        <time>2018-01-25T13:16:06Z</time>
      </trkpt>
      <trkpt lat="46.377572" lon="15.188530">
        <ele>1015.00</ele>
        <time>2018-01-25T13:16:08Z</time>
      </trkpt>
      <trkpt lat="46.377553" lon="15.188567">
        <ele>1015.00</ele>
        <time>2018-01-25T13:16:10Z</time>
      </trkpt>
      <trkpt lat="46.377538" lon="15.188588">
        <ele>1015.25</ele>
        <time>2018-01-25T13:16:12Z</time>
      </trkpt>
      <trkpt lat="46.377534" lon="15.188605">
        <ele>1016.00</ele>
        <time>2018-01-25T13:16:14Z</time>
      </trkpt>
      <trkpt lat="46.377527" lon="15.188633">
        <ele>1016.00</ele>
        <time>2018-01-25T13:16:16Z</time>
      </trkpt>
      <trkpt lat="46.377500" lon="15.188677">
        <ele>1016.00</ele>
        <time>2018-01-25T13:16:18Z</time>
      </trkpt>
      <trkpt lat="46.377486" lon="15.188699">
        <ele>1016.00</ele>
        <time>2018-01-25T13:16:19Z</time>
      </trkpt>
      <trkpt lat="46.377472" lon="15.188727">
        <ele>1016.00</ele>
        <time>2018-01-25T13:16:21Z</time>
      </trkpt>
      <trkpt lat="46.377449" lon="15.188742">
        <ele>1016.00</ele>
        <time>2018-01-25T13:16:24Z</time>
      </trkpt>
      <trkpt lat="46.377403" lon="15.188774">
        <ele>1016.00</ele>
        <time>2018-01-25T13:16:26Z</time>
      </trkpt>
      <trkpt lat="46.377379" lon="15.188801">
        <ele>1016.00</ele>
        <time>2018-01-25T13:16:28Z</time>
      </trkpt>
      <trkpt lat="46.377360" lon="15.188822">
        <ele>1016.00</ele>
        <time>2018-01-25T13:16:32Z</time>
      </trkpt>
      <trkpt lat="46.377326" lon="15.188834">
        <ele>1016.00</ele>
        <time>2018-01-25T13:16:34Z</time>
      </trkpt>
      <trkpt lat="46.377314" lon="15.188835">
        <ele>1016.00</ele>
        <time>2018-01-25T13:16:35Z</time>
      </trkpt>
      <trkpt lat="46.377306" lon="15.188843">
        <ele>1016.00</ele>
        <time>2018-01-25T13:16:38Z</time>
      </trkpt>
      <trkpt lat="46.377277" lon="15.188864">
        <ele>1016.00</ele>
        <time>2018-01-25T13:16:40Z</time>
      </trkpt>
      <trkpt lat="46.377238" lon="15.188883">
        <ele>1016.51</ele>
        <time>2018-01-25T13:16:42Z</time>
      </trkpt>
      <trkpt lat="46.377222" lon="15.188887">
        <ele>1018.00</ele>
        <time>2018-01-25T13:16:44Z</time>
      </trkpt>
      <trkpt lat="46.377206" lon="15.188899">
        <ele>1018.00</ele>
        <time>2018-01-25T13:16:46Z</time>
      </trkpt>
      <trkpt lat="46.377179" lon="15.188923">
        <ele>1018.00</ele>
        <time>2018-01-25T13:16:49Z</time>
      </trkpt>
      <trkpt lat="46.377166" lon="15.188939">
        <ele>1018.76</ele>
        <time>2018-01-25T13:16:52Z</time>
      </trkpt>
      <trkpt lat="46.377139" lon="15.188961">
        <ele>1021.00</ele>
        <time>2018-01-25T13:16:54Z</time>
      </trkpt>
      <trkpt lat="46.377121" lon="15.188979">
        <ele>1021.00</ele>
        <time>2018-01-25T13:16:56Z</time>
      </trkpt>
      <trkpt lat="46.377116" lon="15.188995">
        <ele>1022.00</ele>
        <time>2018-01-25T13:16:58Z</time>
      </trkpt>
      <trkpt lat="46.377092" lon="15.189021">
        <ele>1022.00</ele>
        <time>2018-01-25T13:17:00Z</time>
      </trkpt>
      <trkpt lat="46.377076" lon="15.189040">
        <ele>1022.25</ele>
        <time>2018-01-25T13:17:02Z</time>
      </trkpt>
      <trkpt lat="46.377064" lon="15.189054">
        <ele>1023.00</ele>
        <time>2018-01-25T13:17:04Z</time>
      </trkpt>
      <trkpt lat="46.377027" lon="15.189070">
        <ele>1023.00</ele>
        <time>2018-01-25T13:17:06Z</time>
      </trkpt>
      <trkpt lat="46.377015" lon="15.189081">
        <ele>1023.00</ele>
        <time>2018-01-25T13:17:08Z</time>
      </trkpt>
      <trkpt lat="46.377006" lon="15.189086">
        <ele>1023.00</ele>
        <time>2018-01-25T13:17:10Z</time>
      </trkpt>
      <trkpt lat="46.376979" lon="15.189102">
        <ele>1023.25</ele>
        <time>2018-01-25T13:17:12Z</time>
      </trkpt>
      <trkpt lat="46.376973" lon="15.189118">
        <ele>1024.00</ele>
        <time>2018-01-25T13:17:14Z</time>
      </trkpt>
      <trkpt lat="46.376944" lon="15.189156">
        <ele>1024.00</ele>
        <time>2018-01-25T13:17:17Z</time>
      </trkpt>
      <trkpt lat="46.376929" lon="15.189182">
        <ele>1024.00</ele>
        <time>2018-01-25T13:17:19Z</time>
      </trkpt>
      <trkpt lat="46.376902" lon="15.189197">
        <ele>1024.51</ele>
        <time>2018-01-25T13:17:22Z</time>
      </trkpt>
      <trkpt lat="46.376879" lon="15.189213">
        <ele>1026.00</ele>
        <time>2018-01-25T13:17:24Z</time>
      </trkpt>
      <trkpt lat="46.376869" lon="15.189219">
        <ele>1026.00</ele>
        <time>2018-01-25T13:17:26Z</time>
      </trkpt>
      <trkpt lat="46.376847" lon="15.189235">
        <ele>1026.00</ele>
        <time>2018-01-25T13:17:28Z</time>
      </trkpt>
      <trkpt lat="46.376841" lon="15.189245">
        <ele>1026.00</ele>
        <time>2018-01-25T13:17:29Z</time>
      </trkpt>
      <trkpt lat="46.376826" lon="15.189265">
        <ele>1026.00</ele>
        <time>2018-01-25T13:17:31Z</time>
      </trkpt>
      <trkpt lat="46.376794" lon="15.189284">
        <ele>1027.00</ele>
        <time>2018-01-25T13:17:33Z</time>
      </trkpt>
      <trkpt lat="46.376768" lon="15.189312">
        <ele>1027.00</ele>
        <time>2018-01-25T13:17:35Z</time>
      </trkpt>
      <trkpt lat="46.376745" lon="15.189336">
        <ele>1027.00</ele>
        <time>2018-01-25T13:17:40Z</time>
      </trkpt>
      <trkpt lat="46.376731" lon="15.189355">
        <ele>1027.00</ele>
        <time>2018-01-25T13:17:43Z</time>
      </trkpt>
      <trkpt lat="46.376706" lon="15.189381">
        <ele>1027.00</ele>
        <time>2018-01-25T13:17:45Z</time>
      </trkpt>
      <trkpt lat="46.376701" lon="15.189397">
        <ele>1027.00</ele>
        <time>2018-01-25T13:17:47Z</time>
      </trkpt>
      <trkpt lat="46.376689" lon="15.189400">
        <ele>1027.00</ele>
        <time>2018-01-25T13:17:49Z</time>
      </trkpt>
      <trkpt lat="46.376656" lon="15.189415">
        <ele>1027.00</ele>
        <time>2018-01-25T13:17:51Z</time>
      </trkpt>
      <trkpt lat="46.376636" lon="15.189428">
        <ele>1028.00</ele>
        <time>2018-01-25T13:17:55Z</time>
      </trkpt>
      <trkpt lat="46.376608" lon="15.189439">
        <ele>1028.00</ele>
        <time>2018-01-25T13:17:57Z</time>
      </trkpt>
      <trkpt lat="46.376598" lon="15.189448">
        <ele>1028.00</ele>
        <time>2018-01-25T13:17:58Z</time>
      </trkpt>
      <trkpt lat="46.376582" lon="15.189466">
        <ele>1028.00</ele>
        <time>2018-01-25T13:18:00Z</time>
      </trkpt>
      <trkpt lat="46.376570" lon="15.189469">
        <ele>1028.00</ele>
        <time>2018-01-25T13:18:01Z</time>
      </trkpt>
      <trkpt lat="46.376555" lon="15.189489">
        <ele>1030.00</ele>
        <time>2018-01-25T13:18:03Z</time>
      </trkpt>
      <trkpt lat="46.376548" lon="15.189509">
        <ele>1030.00</ele>
        <time>2018-01-25T13:18:05Z</time>
      </trkpt>
      <trkpt lat="46.376538" lon="15.189518">
        <ele>1030.00</ele>
        <time>2018-01-25T13:18:06Z</time>
      </trkpt>
      <trkpt lat="46.376528" lon="15.189540">
        <ele>1030.00</ele>
        <time>2018-01-25T13:18:08Z</time>
      </trkpt>
      <trkpt lat="46.376511" lon="15.189556">
        <ele>1030.00</ele>
        <time>2018-01-25T13:18:10Z</time>
      </trkpt>
      <trkpt lat="46.376486" lon="15.189574">
        <ele>1030.25</ele>
        <time>2018-01-25T13:18:12Z</time>
      </trkpt>
      <trkpt lat="46.376474" lon="15.189586">
        <ele>1031.00</ele>
        <time>2018-01-25T13:18:14Z</time>
      </trkpt>
      <trkpt lat="46.376469" lon="15.189599">
        <ele>1031.00</ele>
        <time>2018-01-25T13:18:15Z</time>
      </trkpt>
      <trkpt lat="46.376442" lon="15.189625">
        <ele>1031.00</ele>
        <time>2018-01-25T13:18:17Z</time>
      </trkpt>
      <trkpt lat="46.376430" lon="15.189639">
        <ele>1031.00</ele>
        <time>2018-01-25T13:18:19Z</time>
      </trkpt>
      <trkpt lat="46.376420" lon="15.189655">
        <ele>1031.00</ele>
        <time>2018-01-25T13:18:21Z</time>
      </trkpt>
      <trkpt lat="46.376385" lon="15.189671">
        <ele>1031.00</ele>
        <time>2018-01-25T13:18:23Z</time>
      </trkpt>
      <trkpt lat="46.376364" lon="15.189684">
        <ele>1031.00</ele>
        <time>2018-01-25T13:18:25Z</time>
      </trkpt>
      <trkpt lat="46.376344" lon="15.189690">
        <ele>1031.00</ele>
        <time>2018-01-25T13:18:28Z</time>
      </trkpt>
      <trkpt lat="46.376320" lon="15.189707">
        <ele>1031.00</ele>
        <time>2018-01-25T13:18:30Z</time>
      </trkpt>
      <trkpt lat="46.376314" lon="15.189721">
        <ele>1031.25</ele>
        <time>2018-01-25T13:18:32Z</time>
      </trkpt>
      <trkpt lat="46.376293" lon="15.189739">
        <ele>1032.00</ele>
        <time>2018-01-25T13:18:34Z</time>
      </trkpt>
      <trkpt lat="46.376261" lon="15.189762">
        <ele>1032.00</ele>
        <time>2018-01-25T13:18:36Z</time>
      </trkpt>
      <trkpt lat="46.376247" lon="15.189774">
        <ele>1032.00</ele>
        <time>2018-01-25T13:18:38Z</time>
      </trkpt>
      <trkpt lat="46.376229" lon="15.189788">
        <ele>1032.00</ele>
        <time>2018-01-25T13:18:41Z</time>
      </trkpt>
      <trkpt lat="46.376213" lon="15.189803">
        <ele>1032.25</ele>
        <time>2018-01-25T13:18:42Z</time>
      </trkpt>
      <trkpt lat="46.376185" lon="15.189840">
        <ele>1033.00</ele>
        <time>2018-01-25T13:18:44Z</time>
      </trkpt>
      <trkpt lat="46.376181" lon="15.189852">
        <ele>1033.00</ele>
        <time>2018-01-25T13:18:46Z</time>
      </trkpt>
      <trkpt lat="46.376171" lon="15.189855">
        <ele>1033.00</ele>
        <time>2018-01-25T13:18:48Z</time>
      </trkpt>
      <trkpt lat="46.376153" lon="15.189862">
        <ele>1033.00</ele>
        <time>2018-01-25T13:18:50Z</time>
      </trkpt>
      <trkpt lat="46.376122" lon="15.189876">
        <ele>1033.00</ele>
        <time>2018-01-25T13:18:52Z</time>
      </trkpt>
      <trkpt lat="46.376110" lon="15.189892">
        <ele>1033.00</ele>
        <time>2018-01-25T13:18:54Z</time>
      </trkpt>
      <trkpt lat="46.376112" lon="15.189913">
        <ele>1033.00</ele>
        <time>2018-01-25T13:18:57Z</time>
      </trkpt>
      <trkpt lat="46.376129" lon="15.189941">
        <ele>1033.00</ele>
        <time>2018-01-25T13:18:59Z</time>
      </trkpt>
      <trkpt lat="46.376153" lon="15.189957">
        <ele>1033.00</ele>
        <time>2018-01-25T13:19:01Z</time>
      </trkpt>
      <trkpt lat="46.376165" lon="15.189951">
        <ele>1033.00</ele>
        <time>2018-01-25T13:19:03Z</time>
      </trkpt>
      <trkpt lat="46.376179" lon="15.189928">
        <ele>1033.00</ele>
        <time>2018-01-25T13:19:06Z</time>
      </trkpt>
      <trkpt lat="46.376207" lon="15.189907">
        <ele>1033.00</ele>
        <time>2018-01-25T13:19:08Z</time>
      </trkpt>
      <trkpt lat="46.376225" lon="15.189892">
        <ele>1033.00</ele>
        <time>2018-01-25T13:19:09Z</time>
      </trkpt>
      <trkpt lat="46.376228" lon="15.189856">
        <ele>1033.00</ele>
        <time>2018-01-25T13:19:11Z</time>
      </trkpt>
      <trkpt lat="46.376212" lon="15.189831">
        <ele>1034.00</ele>
        <time>2018-01-25T13:19:13Z</time>
      </trkpt>
      <trkpt lat="46.376199" lon="15.189797">
        <ele>1034.00</ele>
        <time>2018-01-25T13:19:17Z</time>
      </trkpt>
    </trkseg>
  </trk>
</gpx>
